sensor_id;sensor_type;location;lat;lon;timestamp;temperature;humidity
19813;DHT22;10066;48.108;11.448;2023-11-19T00:00:59;5.20;99.90
19813;DHT22;10066;48.108;11.448;2023-11-19T00:03:26;5.10;99.90
19813;DHT22;10066;48.108;11.448;2023-11-19T00:05:55;5.10;99.90
19813;DHT22;10066;48.108;11.448;2023-11-19T00:08:21;5.20;99.90
19813;DHT22;10066;48.108;11.448;2023-11-19T00:10:50;5.20;99.90
19813;DHT22;10066;48.108;11.448;2023-11-19T00:13:17;5.20;99.90
19813;DHT22;10066;48.108;11.448;2023-11-19T00:15:48;5.20;99.90
19813;DHT22;10066;48.108;11.448;2023-11-19T00:18:16;5.20;99.90
19813;DHT22;10066;48.108;11.448;2023-11-19T00:20:43;5.20;99.90
19813;DHT22;10066;48.108;11.448;2023-11-19T00:23:13;5.20;99.90
19813;DHT22;10066;48.108;11.448;2023-11-19T00:25:39;5.20;99.90
19813;DHT22;10066;48.108;11.448;2023-11-19T00:28:06;5.20;99.90
19813;DHT22;10066;48.108;11.448;2023-11-19T00:30:33;5.20;99.90
19813;DHT22;10066;48.108;11.448;2023-11-19T00:33:04;5.20;99.90
19813;DHT22;10066;48.108;11.448;2023-11-19T00:35:31;5.20;99.90
19813;DHT22;10066;48.108;11.448;2023-11-19T00:37:58;5.20;99.90
19813;DHT22;10066;48.108;11.448;2023-11-19T00:40:27;5.20;99.90
19813;DHT22;10066;48.108;11.448;2023-11-19T00:42:54;5.20;99.90
19813;DHT22;10066;48.108;11.448;2023-11-19T00:45:21;5.30;99.90
19813;DHT22;10066;48.108;11.448;2023-11-19T00:47:48;5.40;99.90
19813;DHT22;10066;48.108;11.448;2023-11-19T00:50:15;5.40;99.90
19813;DHT22;10066;48.108;11.448;2023-11-19T00:52:44;5.50;99.90
19813;DHT22;10066;48.108;11.448;2023-11-19T00:55:12;5.50;99.90
19813;DHT22;10066;48.108;11.448;2023-11-19T00:57:40;5.60;99.90
19813;DHT22;10066;48.108;11.448;2023-11-19T01:00:09;5.60;99.90
19813;DHT22;10066;48.108;11.448;2023-11-19T01:02:45;5.60;99.90
19813;DHT22;10066;48.108;11.448;2023-11-19T01:05:13;5.60;99.90
19813;DHT22;10066;48.108;11.448;2023-11-19T01:07:46;5.70;99.90
19813;DHT22;10066;48.108;11.448;2023-11-19T01:10:14;5.70;99.90
19813;DHT22;10066;48.108;11.448;2023-11-19T01:12:43;5.70;99.90
19813;DHT22;10066;48.108;11.448;2023-11-19T01:15:10;5.80;99.90
19813;DHT22;10066;48.108;11.448;2023-11-19T01:17:37;5.80;99.90
19813;DHT22;10066;48.108;11.448;2023-11-19T01:20:05;5.80;99.90
19813;DHT22;10066;48.108;11.448;2023-11-19T01:22:33;5.80;99.90
19813;DHT22;10066;48.108;11.448;2023-11-19T01:24:59;5.80;99.90
19813;DHT22;10066;48.108;11.448;2023-11-19T01:27:26;5.80;99.90
19813;DHT22;10066;48.108;11.448;2023-11-19T01:29:54;5.90;99.90
19813;DHT22;10066;48.108;11.448;2023-11-19T01:32:22;5.80;99.90
19813;DHT22;10066;48.108;11.448;2023-11-19T01:34:49;5.90;99.90
19813;DHT22;10066;48.108;11.448;2023-11-19T01:37:17;5.90;99.90
19813;DHT22;10066;48.108;11.448;2023-11-19T01:39:44;5.90;99.90
19813;DHT22;10066;48.108;11.448;2023-11-19T01:42:14;5.90;99.90
19813;DHT22;10066;48.108;11.448;2023-11-19T01:44:41;5.90;99.90
19813;DHT22;10066;48.108;11.448;2023-11-19T01:47:12;5.90;99.90
19813;DHT22;10066;48.108;11.448;2023-11-19T01:49:39;5.90;99.90
19813;DHT22;10066;48.108;11.448;2023-11-19T01:52:06;5.90;99.90
19813;DHT22;10066;48.108;11.448;2023-11-19T01:54:35;5.90;99.90
19813;DHT22;10066;48.108;11.448;2023-11-19T01:57:02;6.00;99.90
19813;DHT22;10066;48.108;11.448;2023-11-19T01:59:30;6.00;99.90
19813;DHT22;10066;48.108;11.448;2023-11-19T02:01:58;6.00;99.90
19813;DHT22;10066;48.108;11.448;2023-11-19T02:04:27;6.10;99.90
19813;DHT22;10066;48.108;11.448;2023-11-19T02:06:57;6.10;99.90
19813;DHT22;10066;48.108;11.448;2023-11-19T02:09:24;6.10;99.90
19813;DHT22;10066;48.108;11.448;2023-11-19T02:11:55;6.10;99.90
19813;DHT22;10066;48.108;11.448;2023-11-19T02:14:25;6.20;99.90
19813;DHT22;10066;48.108;11.448;2023-11-19T02:16:52;6.20;99.90
19813;DHT22;10066;48.108;11.448;2023-11-19T02:19:19;6.20;99.90
19813;DHT22;10066;48.108;11.448;2023-11-19T02:21:48;6.20;99.90
19813;DHT22;10066;48.108;11.448;2023-11-19T02:24:21;6.20;99.90
19813;DHT22;10066;48.108;11.448;2023-11-19T02:26:53;6.20;99.90
19813;DHT22;10066;48.108;11.448;2023-11-19T02:29:24;6.30;99.90
19813;DHT22;10066;48.108;11.448;2023-11-19T02:31:51;6.30;99.90
19813;DHT22;10066;48.108;11.448;2023-11-19T02:34:20;6.30;99.90
19813;DHT22;10066;48.108;11.448;2023-11-19T02:36:47;6.40;99.90
19813;DHT22;10066;48.108;11.448;2023-11-19T02:39:15;6.40;99.90
19813;DHT22;10066;48.108;11.448;2023-11-19T02:41:48;6.40;99.90
19813;DHT22;10066;48.108;11.448;2023-11-19T02:44:17;6.50;99.90
19813;DHT22;10066;48.108;11.448;2023-11-19T02:46:45;6.50;99.90
19813;DHT22;10066;48.108;11.448;2023-11-19T02:49:14;6.60;99.90
19813;DHT22;10066;48.108;11.448;2023-11-19T02:51:41;6.60;99.90
19813;DHT22;10066;48.108;11.448;2023-11-19T02:54:08;6.70;99.90
19813;DHT22;10066;48.108;11.448;2023-11-19T02:56:36;6.70;99.90
19813;DHT22;10066;48.108;11.448;2023-11-19T02:59:02;6.80;99.90
19813;DHT22;10066;48.108;11.448;2023-11-19T03:01:40;6.90;99.90
19813;DHT22;10066;48.108;11.448;2023-11-19T03:04:10;6.90;99.90
19813;DHT22;10066;48.108;11.448;2023-11-19T03:06:38;7.00;99.90
19813;DHT22;10066;48.108;11.448;2023-11-19T03:09:05;7.10;99.90
19813;DHT22;10066;48.108;11.448;2023-11-19T03:11:35;7.10;99.90
19813;DHT22;10066;48.108;11.448;2023-11-19T03:14:02;7.20;99.90
19813;DHT22;10066;48.108;11.448;2023-11-19T03:16:29;7.20;99.90
19813;DHT22;10066;48.108;11.448;2023-11-19T03:18:57;7.30;99.90
19813;DHT22;10066;48.108;11.448;2023-11-19T03:21:29;7.30;99.90
19813;DHT22;10066;48.108;11.448;2023-11-19T03:23:57;7.40;99.90
19813;DHT22;10066;48.108;11.448;2023-11-19T03:26:26;7.40;99.90
19813;DHT22;10066;48.108;11.448;2023-11-19T03:28:53;7.40;99.90
19813;DHT22;10066;48.108;11.448;2023-11-19T03:31:22;7.50;99.90
19813;DHT22;10066;48.108;11.448;2023-11-19T03:33:50;7.50;99.90
19813;DHT22;10066;48.108;11.448;2023-11-19T03:36:17;7.50;99.90
19813;DHT22;10066;48.108;11.448;2023-11-19T03:38:45;7.60;99.90
19813;DHT22;10066;48.108;11.448;2023-11-19T03:41:14;7.60;99.90
19813;DHT22;10066;48.108;11.448;2023-11-19T03:43:43;7.60;99.90
19813;DHT22;10066;48.108;11.448;2023-11-19T03:46:17;7.70;99.90
19813;DHT22;10066;48.108;11.448;2023-11-19T03:48:44;7.70;99.90
19813;DHT22;10066;48.108;11.448;2023-11-19T03:51:13;7.70;99.90
19813;DHT22;10066;48.108;11.448;2023-11-19T03:53:41;7.80;99.90
19813;DHT22;10066;48.108;11.448;2023-11-19T03:56:10;7.80;99.90
19813;DHT22;10066;48.108;11.448;2023-11-19T03:58:37;7.80;99.90
19813;DHT22;10066;48.108;11.448;2023-11-19T04:01:05;7.80;99.90
19813;DHT22;10066;48.108;11.448;2023-11-19T04:03:32;7.80;99.90
19813;DHT22;10066;48.108;11.448;2023-11-19T04:05:59;7.90;99.90
19813;DHT22;10066;48.108;11.448;2023-11-19T04:08:26;7.90;99.90
19813;DHT22;10066;48.108;11.448;2023-11-19T04:10:53;7.90;99.90
19813;DHT22;10066;48.108;11.448;2023-11-19T04:13:22;8.00;99.90
19813;DHT22;10066;48.108;11.448;2023-11-19T04:15:50;8.00;99.90
19813;DHT22;10066;48.108;11.448;2023-11-19T04:18:19;8.00;99.90
19813;DHT22;10066;48.108;11.448;2023-11-19T04:20:46;8.00;99.90
19813;DHT22;10066;48.108;11.448;2023-11-19T04:23:13;8.10;99.90
19813;DHT22;10066;48.108;11.448;2023-11-19T04:25:40;8.00;99.90
19813;DHT22;10066;48.108;11.448;2023-11-19T04:28:11;8.10;99.90
19813;DHT22;10066;48.108;11.448;2023-11-19T04:30:39;8.10;99.90
19813;DHT22;10066;48.108;11.448;2023-11-19T04:33:06;8.20;99.90
19813;DHT22;10066;48.108;11.448;2023-11-19T04:35:34;8.20;99.90
19813;DHT22;10066;48.108;11.448;2023-11-19T04:38:01;8.20;99.90
19813;DHT22;10066;48.108;11.448;2023-11-19T04:40:31;8.20;99.90
19813;DHT22;10066;48.108;11.448;2023-11-19T04:42:59;8.20;99.90
19813;DHT22;10066;48.108;11.448;2023-11-19T04:45:27;8.30;99.90
19813;DHT22;10066;48.108;11.448;2023-11-19T04:47:58;8.30;99.90
19813;DHT22;10066;48.108;11.448;2023-11-19T04:50:25;8.30;99.90
19813;DHT22;10066;48.108;11.448;2023-11-19T04:52:52;8.30;99.90
19813;DHT22;10066;48.108;11.448;2023-11-19T04:55:21;8.40;99.90
19813;DHT22;10066;48.108;11.448;2023-11-19T04:57:48;8.40;99.90
19813;DHT22;10066;48.108;11.448;2023-11-19T05:00:15;8.40;99.90
19813;DHT22;10066;48.108;11.448;2023-11-19T05:02:44;8.50;99.90
19813;DHT22;10066;48.108;11.448;2023-11-19T05:05:15;8.50;99.90
19813;DHT22;10066;48.108;11.448;2023-11-19T05:07:43;8.60;99.90
19813;DHT22;10066;48.108;11.448;2023-11-19T05:12:38;8.80;99.90
19813;DHT22;10066;48.108;11.448;2023-11-19T05:15:05;8.90;99.90
19813;DHT22;10066;48.108;11.448;2023-11-19T05:17:33;9.10;99.90
19813;DHT22;10066;48.108;11.448;2023-11-19T05:20:00;9.20;99.90
19813;DHT22;10066;48.108;11.448;2023-11-19T05:22:29;9.30;99.90
19813;DHT22;10066;48.108;11.448;2023-11-19T05:24:56;9.40;99.90
19813;DHT22;10066;48.108;11.448;2023-11-19T05:27:24;9.50;99.90
19813;DHT22;10066;48.108;11.448;2023-11-19T05:29:52;9.60;99.90
19813;DHT22;10066;48.108;11.448;2023-11-19T05:32:19;9.60;99.90
19813;DHT22;10066;48.108;11.448;2023-11-19T05:34:46;9.70;99.90
19813;DHT22;10066;48.108;11.448;2023-11-19T05:37:13;9.70;99.90
19813;DHT22;10066;48.108;11.448;2023-11-19T05:39:42;9.80;99.90
19813;DHT22;10066;48.108;11.448;2023-11-19T05:42:09;9.80;99.90
19813;DHT22;10066;48.108;11.448;2023-11-19T05:44:37;9.80;99.90
19813;DHT22;10066;48.108;11.448;2023-11-19T05:47:04;9.90;99.90
19813;DHT22;10066;48.108;11.448;2023-11-19T05:49:31;9.90;99.90
19813;DHT22;10066;48.108;11.448;2023-11-19T05:51:58;9.90;99.90
19813;DHT22;10066;48.108;11.448;2023-11-19T05:54:27;9.90;99.90
19813;DHT22;10066;48.108;11.448;2023-11-19T05:56:55;9.90;99.90
19813;DHT22;10066;48.108;11.448;2023-11-19T05:59:24;9.90;99.90
19813;DHT22;10066;48.108;11.448;2023-11-19T06:01:51;10.00;99.90
19813;DHT22;10066;48.108;11.448;2023-11-19T06:04:18;10.00;99.90
19813;DHT22;10066;48.108;11.448;2023-11-19T06:06:46;10.00;99.90
19813;DHT22;10066;48.108;11.448;2023-11-19T06:09:13;9.90;99.90
19813;DHT22;10066;48.108;11.448;2023-11-19T06:11:40;9.90;99.90
19813;DHT22;10066;48.108;11.448;2023-11-19T06:14:08;9.90;99.90
19813;DHT22;10066;48.108;11.448;2023-11-19T06:16:35;9.90;99.90
19813;DHT22;10066;48.108;11.448;2023-11-19T06:19:05;9.90;99.90
19813;DHT22;10066;48.108;11.448;2023-11-19T06:21:32;9.90;99.90
19813;DHT22;10066;48.108;11.448;2023-11-19T06:23:59;9.90;99.90
19813;DHT22;10066;48.108;11.448;2023-11-19T06:26:29;9.90;99.90
19813;DHT22;10066;48.108;11.448;2023-11-19T06:28:55;10.00;99.90
19813;DHT22;10066;48.108;11.448;2023-11-19T06:31:24;10.00;99.90
19813;DHT22;10066;48.108;11.448;2023-11-19T06:33:51;10.00;99.90
19813;DHT22;10066;48.108;11.448;2023-11-19T06:36:17;10.00;99.90
19813;DHT22;10066;48.108;11.448;2023-11-19T06:38:45;10.00;99.90
19813;DHT22;10066;48.108;11.448;2023-11-19T06:41:12;10.00;99.90
19813;DHT22;10066;48.108;11.448;2023-11-19T06:43:39;10.10;99.90
19813;DHT22;10066;48.108;11.448;2023-11-19T06:46:14;10.10;99.90
19813;DHT22;10066;48.108;11.448;2023-11-19T06:48:43;10.10;99.90
19813;DHT22;10066;48.108;11.448;2023-11-19T06:51:10;10.10;99.90
19813;DHT22;10066;48.108;11.448;2023-11-19T06:53:39;10.10;99.90
19813;DHT22;10066;48.108;11.448;2023-11-19T06:56:18;10.10;99.90
19813;DHT22;10066;48.108;11.448;2023-11-19T06:58:44;10.10;99.90
19813;DHT22;10066;48.108;11.448;2023-11-19T07:01:13;10.20;99.90
19813;DHT22;10066;48.108;11.448;2023-11-19T07:06:11;10.20;99.90
19813;DHT22;10066;48.108;11.448;2023-11-19T07:08:40;10.20;99.90
19813;DHT22;10066;48.108;11.448;2023-11-19T07:11:07;10.20;99.90
19813;DHT22;10066;48.108;11.448;2023-11-19T07:13:35;10.30;99.90
19813;DHT22;10066;48.108;11.448;2023-11-19T07:16:04;10.30;99.90
19813;DHT22;10066;48.108;11.448;2023-11-19T07:18:31;10.40;99.90
19813;DHT22;10066;48.108;11.448;2023-11-19T07:21:02;10.40;99.90
19813;DHT22;10066;48.108;11.448;2023-11-19T07:23:31;10.40;99.90
19813;DHT22;10066;48.108;11.448;2023-11-19T07:26:00;10.40;99.90
19813;DHT22;10066;48.108;11.448;2023-11-19T07:28:27;10.50;99.90
19813;DHT22;10066;48.108;11.448;2023-11-19T07:30:55;10.50;99.90
19813;DHT22;10066;48.108;11.448;2023-11-19T07:33:22;10.50;99.90
19813;DHT22;10066;48.108;11.448;2023-11-19T07:35:50;10.50;99.90
19813;DHT22;10066;48.108;11.448;2023-11-19T07:38:18;10.60;99.90
19813;DHT22;10066;48.108;11.448;2023-11-19T07:40:48;10.60;99.90
19813;DHT22;10066;48.108;11.448;2023-11-19T07:43:15;10.60;99.90
19813;DHT22;10066;48.108;11.448;2023-11-19T07:45:42;10.70;99.90
19813;DHT22;10066;48.108;11.448;2023-11-19T07:48:11;10.70;99.90
19813;DHT22;10066;48.108;11.448;2023-11-19T07:50:38;10.70;99.90
19813;DHT22;10066;48.108;11.448;2023-11-19T07:53:06;10.80;99.90
19813;DHT22;10066;48.108;11.448;2023-11-19T07:55:38;10.80;99.90
19813;DHT22;10066;48.108;11.448;2023-11-19T07:58:05;10.80;99.90
19813;DHT22;10066;48.108;11.448;2023-11-19T08:00:32;10.80;99.90
19813;DHT22;10066;48.108;11.448;2023-11-19T08:02:59;10.80;99.90
19813;DHT22;10066;48.108;11.448;2023-11-19T08:05:27;10.80;99.90
19813;DHT22;10066;48.108;11.448;2023-11-19T08:07:55;10.90;99.90
19813;DHT22;10066;48.108;11.448;2023-11-19T08:10:22;10.90;99.90
19813;DHT22;10066;48.108;11.448;2023-11-19T08:12:51;10.90;99.90
19813;DHT22;10066;48.108;11.448;2023-11-19T08:15:18;10.90;99.90
19813;DHT22;10066;48.108;11.448;2023-11-19T08:17:45;11.00;99.90
19813;DHT22;10066;48.108;11.448;2023-11-19T08:20:12;11.00;99.90
19813;DHT22;10066;48.108;11.448;2023-11-19T08:22:39;11.00;99.90
19813;DHT22;10066;48.108;11.448;2023-11-19T08:25:07;11.00;99.90
19813;DHT22;10066;48.108;11.448;2023-11-19T08:27:35;11.10;99.90
19813;DHT22;10066;48.108;11.448;2023-11-19T08:30:05;11.10;99.90
19813;DHT22;10066;48.108;11.448;2023-11-19T08:32:32;11.10;99.90
19813;DHT22;10066;48.108;11.448;2023-11-19T08:34:59;11.20;99.90
19813;DHT22;10066;48.108;11.448;2023-11-19T08:37:26;11.20;99.90
19813;DHT22;10066;48.108;11.448;2023-11-19T08:39:55;11.20;99.90
19813;DHT22;10066;48.108;11.448;2023-11-19T08:42:22;11.30;99.90
19813;DHT22;10066;48.108;11.448;2023-11-19T08:44:50;11.20;99.90
19813;DHT22;10066;48.108;11.448;2023-11-19T08:47:21;11.30;99.90
19813;DHT22;10066;48.108;11.448;2023-11-19T08:49:50;11.30;99.90
19813;DHT22;10066;48.108;11.448;2023-11-19T08:52:18;11.30;99.90
19813;DHT22;10066;48.108;11.448;2023-11-19T08:54:45;11.40;99.90
19813;DHT22;10066;48.108;11.448;2023-11-19T08:57:12;11.40;99.90
19813;DHT22;10066;48.108;11.448;2023-11-19T08:59:40;11.50;99.90
19813;DHT22;10066;48.108;11.448;2023-11-19T09:02:07;11.50;99.90
19813;DHT22;10066;48.108;11.448;2023-11-19T09:04:37;11.60;99.90
19813;DHT22;10066;48.108;11.448;2023-11-19T09:07:09;11.60;99.90
19813;DHT22;10066;48.108;11.448;2023-11-19T09:09:36;11.60;99.90
19813;DHT22;10066;48.108;11.448;2023-11-19T09:12:03;11.70;99.90
19813;DHT22;10066;48.108;11.448;2023-11-19T09:14:30;11.70;99.90
19813;DHT22;10066;48.108;11.448;2023-11-19T09:16:57;11.70;99.90
19813;DHT22;10066;48.108;11.448;2023-11-19T09:19:24;11.70;99.90
19813;DHT22;10066;48.108;11.448;2023-11-19T09:21:56;11.80;99.90
19813;DHT22;10066;48.108;11.448;2023-11-19T09:24:24;11.80;99.90
19813;DHT22;10066;48.108;11.448;2023-11-19T09:26:51;11.80;99.90
19813;DHT22;10066;48.108;11.448;2023-11-19T09:29:20;11.80;99.90
19813;DHT22;10066;48.108;11.448;2023-11-19T09:31:47;11.80;99.90
19813;DHT22;10066;48.108;11.448;2023-11-19T09:34:14;11.80;99.90
19813;DHT22;10066;48.108;11.448;2023-11-19T09:36:41;11.90;99.90
19813;DHT22;10066;48.108;11.448;2023-11-19T09:39:12;11.90;99.90
19813;DHT22;10066;48.108;11.448;2023-11-19T09:41:40;12.00;99.90
19813;DHT22;10066;48.108;11.448;2023-11-19T09:44:09;12.00;99.90
19813;DHT22;10066;48.108;11.448;2023-11-19T09:46:38;12.00;99.90
19813;DHT22;10066;48.108;11.448;2023-11-19T09:49:05;12.00;99.90
19813;DHT22;10066;48.108;11.448;2023-11-19T09:51:34;12.00;99.90
19813;DHT22;10066;48.108;11.448;2023-11-19T09:54:02;12.00;99.90
19813;DHT22;10066;48.108;11.448;2023-11-19T09:56:31;12.00;99.90
19813;DHT22;10066;48.108;11.448;2023-11-19T09:58:59;12.10;99.90
19813;DHT22;10066;48.108;11.448;2023-11-19T10:01:26;12.10;99.90
19813;DHT22;10066;48.108;11.448;2023-11-19T10:03:55;12.20;99.90
19813;DHT22;10066;48.108;11.448;2023-11-19T10:06:23;12.20;99.90
19813;DHT22;10066;48.108;11.448;2023-11-19T10:08:54;12.30;99.90
19813;DHT22;10066;48.108;11.448;2023-11-19T10:11:22;12.30;99.90
19813;DHT22;10066;48.108;11.448;2023-11-19T10:13:51;12.40;99.90
19813;DHT22;10066;48.108;11.448;2023-11-19T10:16:19;12.50;99.90
19813;DHT22;10066;48.108;11.448;2023-11-19T10:18:47;12.60;99.90
19813;DHT22;10066;48.108;11.448;2023-11-19T10:21:17;12.60;99.90
19813;DHT22;10066;48.108;11.448;2023-11-19T10:23:49;12.70;99.90
19813;DHT22;10066;48.108;11.448;2023-11-19T10:26:18;12.70;99.90
19813;DHT22;10066;48.108;11.448;2023-11-19T10:28:47;12.70;99.90
19813;DHT22;10066;48.108;11.448;2023-11-19T10:31:16;12.70;99.90
19813;DHT22;10066;48.108;11.448;2023-11-19T10:33:43;12.70;99.90
19813;DHT22;10066;48.108;11.448;2023-11-19T10:36:11;12.70;99.90
19813;DHT22;10066;48.108;11.448;2023-11-19T10:38:39;12.70;99.90
19813;DHT22;10066;48.108;11.448;2023-11-19T10:41:06;12.80;99.90
19813;DHT22;10066;48.108;11.448;2023-11-19T10:43:43;12.80;99.90
19813;DHT22;10066;48.108;11.448;2023-11-19T10:46:12;12.80;99.90
19813;DHT22;10066;48.108;11.448;2023-11-19T10:48:40;12.90;99.90
19813;DHT22;10066;48.108;11.448;2023-11-19T10:51:07;13.00;99.90
19813;DHT22;10066;48.108;11.448;2023-11-19T10:53:36;13.20;99.90
19813;DHT22;10066;48.108;11.448;2023-11-19T10:58:35;13.40;99.90
19813;DHT22;10066;48.108;11.448;2023-11-19T11:01:11;13.50;99.90
19813;DHT22;10066;48.108;11.448;2023-11-19T11:03:42;13.60;99.90
19813;DHT22;10066;48.108;11.448;2023-11-19T11:06:11;13.60;99.90
19813;DHT22;10066;48.108;11.448;2023-11-19T11:08:39;13.70;99.90
19813;DHT22;10066;48.108;11.448;2023-11-19T11:11:08;13.70;99.90
19813;DHT22;10066;48.108;11.448;2023-11-19T11:13:37;13.70;99.90
19813;DHT22;10066;48.108;11.448;2023-11-19T11:16:07;13.70;99.90
19813;DHT22;10066;48.108;11.448;2023-11-19T11:18:35;13.70;99.90
19813;DHT22;10066;48.108;11.448;2023-11-19T11:21:06;13.70;99.90
19813;DHT22;10066;48.108;11.448;2023-11-19T11:24:20;13.80;99.90
19813;DHT22;10066;48.108;11.448;2023-11-19T11:27:16;13.80;99.90
19813;DHT22;10066;48.108;11.448;2023-11-19T11:29:55;13.70;99.90
19813;DHT22;10066;48.108;11.448;2023-11-19T11:32:32;13.80;99.90
19813;DHT22;10066;48.108;11.448;2023-11-19T11:35:12;13.80;99.90
19813;DHT22;10066;48.108;11.448;2023-11-19T11:37:45;13.80;99.90
19813;DHT22;10066;48.108;11.448;2023-11-19T11:40:14;13.80;99.90
19813;DHT22;10066;48.108;11.448;2023-11-19T11:42:41;13.80;99.90
19813;DHT22;10066;48.108;11.448;2023-11-19T11:45:09;13.90;99.90
19813;DHT22;10066;48.108;11.448;2023-11-19T11:48:08;13.90;99.90
19813;DHT22;10066;48.108;11.448;2023-11-19T11:50:51;13.90;99.90
19813;DHT22;10066;48.108;11.448;2023-11-19T11:53:20;13.90;99.90
19813;DHT22;10066;48.108;11.448;2023-11-19T11:55:54;14.00;99.90
19813;DHT22;10066;48.108;11.448;2023-11-19T11:58:26;13.90;99.90
19813;DHT22;10066;48.108;11.448;2023-11-19T12:00:53;13.90;99.90
19813;DHT22;10066;48.108;11.448;2023-11-19T12:03:21;13.90;99.90
19813;DHT22;10066;48.108;11.448;2023-11-19T12:05:48;13.90;99.90
19813;DHT22;10066;48.108;11.448;2023-11-19T12:08:20;14.00;99.90
19813;DHT22;10066;48.108;11.448;2023-11-19T12:10:52;14.00;99.90
19813;DHT22;10066;48.108;11.448;2023-11-19T12:13:20;14.10;99.90
19813;DHT22;10066;48.108;11.448;2023-11-19T12:16:09;14.00;99.90
19813;DHT22;10066;48.108;11.448;2023-11-19T12:18:39;14.00;99.90
19813;DHT22;10066;48.108;11.448;2023-11-19T12:21:07;14.00;99.90
19813;DHT22;10066;48.108;11.448;2023-11-19T12:23:44;14.00;99.90
19813;DHT22;10066;48.108;11.448;2023-11-19T12:26:32;13.90;99.90
19813;DHT22;10066;48.108;11.448;2023-11-19T12:29:00;13.90;99.90
19813;DHT22;10066;48.108;11.448;2023-11-19T12:31:29;13.90;99.90
19813;DHT22;10066;48.108;11.448;2023-11-19T12:33:57;14.00;99.90
19813;DHT22;10066;48.108;11.448;2023-11-19T12:36:25;14.10;99.90
19813;DHT22;10066;48.108;11.448;2023-11-19T12:38:54;14.10;99.90
19813;DHT22;10066;48.108;11.448;2023-11-19T12:41:21;14.10;99.90
19813;DHT22;10066;48.108;11.448;2023-11-19T12:43:49;14.10;99.90
19813;DHT22;10066;48.108;11.448;2023-11-19T12:46:19;14.10;99.90
19813;DHT22;10066;48.108;11.448;2023-11-19T12:48:48;14.10;99.90
19813;DHT22;10066;48.108;11.448;2023-11-19T12:51:16;14.10;99.90
19813;DHT22;10066;48.108;11.448;2023-11-19T12:53:50;14.10;99.90
19813;DHT22;10066;48.108;11.448;2023-11-19T12:56:21;14.10;99.90
19813;DHT22;10066;48.108;11.448;2023-11-19T12:58:48;14.10;99.90
19813;DHT22;10066;48.108;11.448;2023-11-19T13:01:16;14.30;99.90
19813;DHT22;10066;48.108;11.448;2023-11-19T13:03:44;14.40;99.90
19813;DHT22;10066;48.108;11.448;2023-11-19T13:06:13;14.50;99.90
19813;DHT22;10066;48.108;11.448;2023-11-19T13:08:42;14.60;99.90
19813;DHT22;10066;48.108;11.448;2023-11-19T13:11:10;14.70;99.90
19813;DHT22;10066;48.108;11.448;2023-11-19T13:13:59;14.80;99.90
19813;DHT22;10066;48.108;11.448;2023-11-19T13:16:27;14.80;99.90
19813;DHT22;10066;48.108;11.448;2023-11-19T13:18:54;14.80;99.90
19813;DHT22;10066;48.108;11.448;2023-11-19T13:21:22;14.90;99.90
19813;DHT22;10066;48.108;11.448;2023-11-19T13:23:49;14.80;99.90
19813;DHT22;10066;48.108;11.448;2023-11-19T13:26:16;14.80;99.90
19813;DHT22;10066;48.108;11.448;2023-11-19T13:28:43;14.80;99.90
19813;DHT22;10066;48.108;11.448;2023-11-19T13:31:13;14.70;99.90
19813;DHT22;10066;48.108;11.448;2023-11-19T13:33:40;14.70;99.90
19813;DHT22;10066;48.108;11.448;2023-11-19T13:36:08;14.70;99.90
19813;DHT22;10066;48.108;11.448;2023-11-19T13:38:36;14.60;99.90
19813;DHT22;10066;48.108;11.448;2023-11-19T13:41:04;14.60;99.90
19813;DHT22;10066;48.108;11.448;2023-11-19T13:43:31;14.60;99.90
19813;DHT22;10066;48.108;11.448;2023-11-19T13:45:58;14.60;99.90
19813;DHT22;10066;48.108;11.448;2023-11-19T13:48:27;14.50;99.90
19813;DHT22;10066;48.108;11.448;2023-11-19T13:50:55;14.40;99.90
19813;DHT22;10066;48.108;11.448;2023-11-19T13:53:22;14.40;99.90
19813;DHT22;10066;48.108;11.448;2023-11-19T13:55:49;14.40;99.90
19813;DHT22;10066;48.108;11.448;2023-11-19T13:58:16;14.40;99.90
19813;DHT22;10066;48.108;11.448;2023-11-19T14:00:43;14.30;99.90
19813;DHT22;10066;48.108;11.448;2023-11-19T14:03:10;14.30;99.90
19813;DHT22;10066;48.108;11.448;2023-11-19T14:05:39;14.20;99.90
19813;DHT22;10066;48.108;11.448;2023-11-19T14:08:07;14.20;99.90
19813;DHT22;10066;48.108;11.448;2023-11-19T14:10:37;14.10;99.90
19813;DHT22;10066;48.108;11.448;2023-11-19T14:13:05;14.10;99.90
19813;DHT22;10066;48.108;11.448;2023-11-19T14:15:32;14.10;99.90
19813;DHT22;10066;48.108;11.448;2023-11-19T14:17:58;14.10;99.90
19813;DHT22;10066;48.108;11.448;2023-11-19T14:20:25;14.10;99.90
19813;DHT22;10066;48.108;11.448;2023-11-19T14:22:53;14.10;99.90
19813;DHT22;10066;48.108;11.448;2023-11-19T14:25:20;14.10;99.90
19813;DHT22;10066;48.108;11.448;2023-11-19T14:27:49;14.10;99.90
19813;DHT22;10066;48.108;11.448;2023-11-19T14:30:16;14.10;99.90
19813;DHT22;10066;48.108;11.448;2023-11-19T14:32:42;14.10;99.90
19813;DHT22;10066;48.108;11.448;2023-11-19T14:35:11;14.00;99.90
19813;DHT22;10066;48.108;11.448;2023-11-19T14:37:38;14.00;99.90
19813;DHT22;10066;48.108;11.448;2023-11-19T14:40:08;14.00;99.90
19813;DHT22;10066;48.108;11.448;2023-11-19T14:42:37;13.90;99.90
19813;DHT22;10066;48.108;11.448;2023-11-19T14:45:05;13.90;99.90
19813;DHT22;10066;48.108;11.448;2023-11-19T14:47:33;13.80;99.90
19813;DHT22;10066;48.108;11.448;2023-11-19T14:50:00;13.80;99.90
19813;DHT22;10066;48.108;11.448;2023-11-19T14:52:28;13.80;99.90
19813;DHT22;10066;48.108;11.448;2023-11-19T14:54:55;13.80;99.90
19813;DHT22;10066;48.108;11.448;2023-11-19T14:57:23;13.80;99.90
19813;DHT22;10066;48.108;11.448;2023-11-19T14:59:50;13.70;99.90
19813;DHT22;10066;48.108;11.448;2023-11-19T15:02:17;13.60;99.90
19813;DHT22;10066;48.108;11.448;2023-11-19T15:04:44;13.50;99.90
19813;DHT22;10066;48.108;11.448;2023-11-19T15:07:12;13.40;99.90
19813;DHT22;10066;48.108;11.448;2023-11-19T15:09:39;13.30;99.90
19813;DHT22;10066;48.108;11.448;2023-11-19T15:12:06;13.20;99.90
19813;DHT22;10066;48.108;11.448;2023-11-19T15:14:34;13.10;99.90
19813;DHT22;10066;48.108;11.448;2023-11-19T15:17:01;13.00;99.90
19813;DHT22;10066;48.108;11.448;2023-11-19T15:19:28;12.90;99.90
19813;DHT22;10066;48.108;11.448;2023-11-19T15:21:55;12.80;99.90
19813;DHT22;10066;48.108;11.448;2023-11-19T15:24:22;12.70;99.90
19813;DHT22;10066;48.108;11.448;2023-11-19T15:26:51;12.60;99.90
19813;DHT22;10066;48.108;11.448;2023-11-19T15:29:18;12.50;99.90
19813;DHT22;10066;48.108;11.448;2023-11-19T15:31:46;12.40;99.90
19813;DHT22;10066;48.108;11.448;2023-11-19T15:34:13;12.40;99.90
19813;DHT22;10066;48.108;11.448;2023-11-19T15:36:40;12.30;99.90
19813;DHT22;10066;48.108;11.448;2023-11-19T15:39:07;12.20;99.90